地図

経路データ

SID SEASON NUMBER BASIN SUBBASIN NAME ISO_TIME NATURE LAT LON WMO_WIND WMO_PRES WMO_AGENCY TRACK_TYPE DIST2LAND LANDFALL IFLAG USA_AGENCY USA_ATCF_ID USA_LAT USA_LON USA_RECORD USA_STATUS USA_WIND USA_PRES USA_SSHS USA_R34_NE USA_R34_SE USA_R34_SW USA_R34_NW USA_R50_NE USA_R50_SE USA_R50_SW USA_R50_NW USA_R64_NE USA_R64_SE USA_R64_SW USA_R64_NW USA_POCI USA_ROCI USA_RMW USA_EYE TOKYO_LAT TOKYO_LON TOKYO_GRADE TOKYO_WIND TOKYO_PRES TOKYO_R50_DIR TOKYO_R50_LONG TOKYO_R50_SHORT TOKYO_R30_DIR TOKYO_R30_LONG TOKYO_R30_SHORT TOKYO_LAND CMA_LAT CMA_LON CMA_CAT CMA_WIND CMA_PRES HKO_LAT HKO_LON HKO_CAT HKO_WIND HKO_PRES NEWDELHI_LAT NEWDELHI_LON NEWDELHI_GRADE NEWDELHI_WIND NEWDELHI_PRES NEWDELHI_CI NEWDELHI_DP NEWDELHI_POCI REUNION_LAT REUNION_LON REUNION_TYPE REUNION_WIND REUNION_PRES REUNION_TNUM REUNION_CI REUNION_RMW REUNION_R34_NE REUNION_R34_SE REUNION_R34_SW REUNION_R34_NW REUNION_R50_NE REUNION_R50_SE REUNION_R50_SW REUNION_R50_NW REUNION_R64_NE REUNION_R64_SE REUNION_R64_SW REUNION_R64_NW BOM_LAT BOM_LON BOM_TYPE BOM_WIND BOM_PRES BOM_TNUM BOM_CI BOM_RMW BOM_R34_NE BOM_R34_SE BOM_R34_SW BOM_R34_NW BOM_R50_NE BOM_R50_SE BOM_R50_SW BOM_R50_NW BOM_R64_NE BOM_R64_SE BOM_R64_SW BOM_R64_NW BOM_ROCI BOM_POCI BOM_EYE BOM_POS_METHOD BOM_PRES_METHOD NADI_LAT NADI_LON NADI_CAT NADI_WIND NADI_PRES WELLINGTON_LAT WELLINGTON_LON WELLINGTON_WIND WELLINGTON_PRES DS824_LAT DS824_LON DS824_STAGE DS824_WIND DS824_PRES TD9636_LAT TD9636_LON TD9636_STAGE TD9636_WIND TD9636_PRES TD9635_LAT TD9635_LON TD9635_WIND TD9635_PRES TD9635_ROCI NEUMANN_LAT NEUMANN_LON NEUMANN_CLASS NEUMANN_WIND NEUMANN_PRES MLC_LAT MLC_LON MLC_CLASS MLC_WIND MLC_PRES USA_GUST BOM_GUST BOM_GUST_PER REUNION_GUST REUNION_GUST_PER USA_SEAHGT USA_SEARAD_NE USA_SEARAD_SE USA_SEARAD_SW USA_SEARAD_NW STORM_SPEED STORM_DIR
2019193N14255 2019 34 EP MM NOT_NAMED 2019-07-12 06:00:00 DS 14.1000 -104.800 20 1008 hurdat_epa main 489 486 O_____________ hurdat_epa EP042019 14.1000 -104.800 LO 20 1008 -3 1010 120 70 11 284
2019193N14255 2019 34 EP MM NOT_NAMED 2019-07-12 09:00:00 DS 14.2352 -105.347 main 497 491 P_____________ EP042019 14.2352 -105.347 LO 22 1007 -3 1010 120 70 11 286
2019193N14255 2019 34 EP MM NOT_NAMED 2019-07-12 12:00:00 TS 14.4000 -105.900 25 1007 hurdat_epa main 506 506 O_____________ hurdat_epa EP042019 14.4000 -105.900 TD 25 1007 -1 1010 120 70 11 290
2019193N14255 2019 34 EP MM NOT_NAMED 2019-07-12 15:00:00 TS 14.6199 -106.458 main 523 514 P_____________ EP042019 14.6199 -106.458 TD 27 1006 -1 1010 160 50 12 295
2019193N14255 2019 34 EP MM NOT_NAMED 2019-07-12 18:00:00 TS 14.9000 -107.000 30 1006 hurdat_epa main 532 525 O_____________ hurdat_epa EP042019 14.9000 -107.000 TD 30 1006 -1 1010 200 30 40 12 301
2019193N14255 2019 34 EP MM NOT_NAMED 2019-07-12 21:00:00 TS 15.2348 -107.500 main 531 520 P_____________ EP042019 15.2348 -107.500 TD 30 1006 -1 1009 175 30 12 306
2019193N14255 2019 34 EP MM NOT_NAMED 2019-07-13 00:00:00 TS 15.6000 -108.000 30 1006 hurdat_epa main 526 524 O_____________ hurdat_epa EP042019 15.6000 -108.000 TD 30 1006 -1 1009 150 30 40 12 306
2019193N14255 2019 34 EP MM NOT_NAMED 2019-07-13 03:00:00 TS 15.9574 -108.535 main 530 530 P_____________ EP042019 15.9574 -108.535 TD 30 1006 -1 1009 150 30 13 303
2019193N14255 2019 34 EP MM NOT_NAMED 2019-07-13 06:00:00 TS 16.3000 -109.100 30 1006 hurdat_epa main 553 553 O_____________ hurdat_epa EP042019 16.3000 -109.100 TD 30 1006 -1 1009 150 30 40 13 301
2019193N14255 2019 34 EP MM NOT_NAMED 2019-07-13 09:00:00 TS 16.6223 -109.685 main 580 580 P_____________ EP042019 16.6223 -109.685 TD 30 1006 -1 1009 150 30 13 298
2019193N14255 2019 34 EP MM NOT_NAMED 2019-07-13 12:00:00 TS 16.9000 -110.300 30 1006 hurdat_epa main 613 613 O_____________ hurdat_epa EP042019 16.9000 -110.300 TD 30 1006 -1 1009 150 30 40 13 293
2019193N14255 2019 34 EP MM NOT_NAMED 2019-07-13 15:00:00 TS 17.1223 -110.935 main 655 643 P_____________ EP042019 17.1223 -110.935 TD 30 1006 -1 1009 150 30 13 288
2019193N14255 2019 34 EP MM NOT_NAMED 2019-07-13 18:00:00 TS 17.3000 -111.600 30 1006 hurdat_epa main 648 643 O_____________ hurdat_epa EP042019 17.3000 -111.600 TD 30 1006 -1 1009 150 30 40 14 284
2019193N14255 2019 34 EP MM NOT_NAMED 2019-07-13 21:00:00 TS 17.4575 -112.308 main 649 649 P_____________ EP042019 17.4575 -112.308 TD 30 1006 -1 1008 150 30 14 283
2019193N14255 2019 34 EP MM NOT_NAMED 2019-07-14 00:00:00 DS 17.6000 -113.000 30 1006 hurdat_epa main 670 670 O_____________ hurdat_epa EP042019 17.6000 -113.000 LO 30 1006 -3 1008 150 30 40 13 283
2019193N14255 2019 34 EP MM NOT_NAMED 2019-07-14 03:00:00 DS 17.7497 -113.623 main 692 688 P_____________ EP042019 17.7497 -113.623 LO 27 1006 -3 1008 135 30 12 285
2019193N14255 2019 34 EP MM NOT_NAMED 2019-07-14 06:00:00 DS 17.9000 -114.200 25 1007 hurdat_epa main 709 709 O_____________ hurdat_epa EP042019 17.9000 -114.200 LO 25 1007 -3 1009 120 30 35 11 285
2019193N14255 2019 34 EP MM NOT_NAMED 2019-07-14 09:00:00 DS 18.0423 -114.765 main 741 733 P_____________ EP042019 18.0423 -114.765 LO 25 1007 -3 1009 120 30 11 286
2019193N14255 2019 34 EP MM NOT_NAMED 2019-07-14 12:00:00 DS 18.2000 -115.300 25 1008 hurdat_epa main 761 761 O_____________ hurdat_epa EP042019 18.2000 -115.300 LO 25 1008 -3 1009 120 30 35 11 290
2019193N14255 2019 34 EP MM NOT_NAMED 2019-07-14 15:00:00 DS 18.4073 -115.807 main 785 785 P_____________ EP042019 18.4073 -115.807 LO 25 1008 -3 1010 120 30 10 293
2019193N14255 2019 34 EP MM NOT_NAMED 2019-07-14 18:00:00 DS 18.6000 -116.300 25 1009 hurdat_epa main 807 807 O_____________ hurdat_epa EP042019 18.6000 -116.300 LO 25 1009 -3 1011 120 30 10 289
2019193N14255 2019 34 EP MM NOT_NAMED 2019-07-14 21:00:00 DS 18.7223 -116.793 main 827 827 P_____________ EP042019 18.7223 -116.793 LO 22 1009 -3 1011 120 30 10 282
2019193N14255 2019 34 EP MM NOT_NAMED 2019-07-15 00:00:00 DS 18.8000 -117.300 20 1010 hurdat_epa main 850 850 O_____________ hurdat_epa EP042019 18.8000 -117.300 LO 20 1010 -3 1011 120 30 10 278
2019193N14255 2019 34 EP MM NOT_NAMED 2019-07-15 03:00:00 DS 18.8554 -117.840 main 875 875 P_____________ EP042019 18.8554 -117.840 LO 17 1010 -3 1011 120 30 10 275
2019193N14255 2019 34 EP MM NOT_NAMED 2019-07-15 06:00:00 DS 18.9000 -118.400 15 1011 hurdat_epa main 918 O_____________ hurdat_epa EP042019 18.9000 -118.400 LO 15 1011 -3 1012 120 30 11 275

IBTrACS Databaseについて

本データベースは、米国NOAAが公開する1842年以降の世界の熱帯低気圧のベストトラックデータアーカイブInternational Best Track Archive for Climate Stewardship (IBTrACS)を、ウェブで閲覧しやすい形式に変換したものです。

最終更新日:2021-10-21